Time;durP1;ratioP1;P1;durP2;ratioP2;P2;SDS_P1;SDS_P2;PMS_P1;PMS_P2;Temp;Humidity;BMP_temperature;BMP_pressure;BME280_temperature;BME280_humidity;BME280_pressure;Samples;Min_cycle;Max_cycle;Signal;HPM_P1;HPM_P2
2024/03/12 00:00:18;;;;;;;5.60;5.10;;;5.20;99.90;;;5.88;100.00;97491.56;10429042;28;20645;-67
2024/03/12 00:05:22;;;;;;;4.83;4.40;;;5.20;99.90;;;5.92;100.00;97492.66;10407291;28;20855;-66
2024/03/12 00:10:25;;;;;;;4.80;4.40;;;5.20;99.90;;;5.87;100.00;97489.81;10390059;28;20786;-65
2024/03/12 00:15:31;;;;;;;4.60;4.20;;;5.20;99.90;;;6.02;100.00;97500.16;10389613;28;20233;-66
2024/03/12 00:20:39;;;;;;;6.30;4.20;;;5.20;99.90;;;5.97;100.00;97498.97;10391361;28;20230;-66
2024/03/12 00:25:42;;;;;;;4.60;4.30;;;5.20;99.90;;;5.96;100.00;97499.75;10389136;28;20298;-65
2024/03/12 00:30:45;;;;;;;4.33;3.93;;;5.20;99.90;;;5.98;100.00;97509.22;10395660;23;20252;-67
2024/03/12 00:35:51;;;;;;;4.03;3.73;;;5.30;99.90;;;6.06;100.00;97507.19;10384360;28;20233;-66
2024/03/12 00:40:55;;;;;;;4.37;3.80;;;5.30;99.90;;;6.07;100.00;97504.78;10402141;28;20240;-67
2024/03/12 00:45:59;;;;;;;4.50;4.10;;;5.40;99.90;;;6.14;100.00;97512.78;10388352;28;20222;-66
2024/03/12 00:51:05;;;;;;;3.97;3.70;;;5.40;99.90;;;6.06;100.00;97517.34;10395195;28;20280;-66
2024/03/12 00:56:08;;;;;;;4.27;3.93;;;5.30;99.90;;;5.93;100.00;97519.78;10378429;28;20238;-67
2024/03/12 01:01:14;;;;;;;3.33;3.10;;;5.10;99.90;;;5.92;100.00;97518.88;10376983;28;20735;-67
2024/03/12 01:06:20;;;;;;;3.80;3.60;;;5.00;99.90;;;5.74;100.00;97528.63;10377934;28;20361;-65
2024/03/12 01:11:23;;;;;;;3.30;3.10;;;4.90;99.90;;;5.55;100.00;97531.56;10377918;28;20233;-66
2024/03/12 01:16:27;;;;;;;3.20;3.00;;;4.80;99.90;;;5.64;100.00;97536.38;10377337;28;20233;-66
2024/03/12 01:21:32;;;;;;;3.83;3.60;;;4.80;99.90;;;5.62;100.00;97538.81;10376085;28;20238;-66
2024/03/12 01:26:35;;;;;;;3.37;3.27;;;4.80;99.90;;;5.71;100.00;97545.28;10376046;28;20245;-66
2024/03/12 01:31:38;;;;;;;3.60;3.40;;;4.90;99.90;;;5.81;100.00;97538.44;10376769;28;20728;-66
2024/03/12 01:36:47;;;;;;;4.40;4.10;;;5.10;99.90;;;5.87;100.00;97543.06;10375329;28;20225;-67
2024/03/12 01:41:51;;;;;;;3.90;3.70;;;5.10;99.90;;;5.91;100.00;97534.88;10376547;28;20594;-65
2024/03/12 01:46:54;;;;;;;4.10;3.80;;;5.10;99.90;;;5.79;100.00;97544.19;10373731;28;20225;-66
2024/03/12 01:51:59;;;;;;;3.80;3.53;;;4.90;99.90;;;5.62;100.00;97548.94;10376293;28;20238;-67
2024/03/12 01:57:02;;;;;;;3.63;3.33;;;4.80;99.90;;;5.59;100.00;97552.91;10377136;28;20218;-66
2024/03/12 02:02:06;;;;;;;3.63;3.43;;;4.70;99.90;;;5.46;100.00;97560.41;10374199;28;20257;-67
2024/03/12 02:07:11;;;;;;;4.27;3.97;;;4.50;99.90;;;5.16;100.00;97550.72;10375784;28;20314;-66
2024/03/12 02:12:15;;;;;;;4.07;3.87;;;4.30;99.90;;;5.14;100.00;97551.38;10377141;28;20233;-65
2024/03/12 02:17:18;;;;;;;4.63;4.33;;;4.30;99.90;;;5.02;100.00;97560.63;10375634;28;20253;-67
2024/03/12 02:22:23;;;;;;;5.33;5.03;;;4.20;99.90;;;4.82;100.00;97562.56;10375514;28;20852;-66
2024/03/12 02:27:27;;;;;;;4.83;4.43;;;4.00;99.90;;;4.76;100.00;97566.28;10377482;28;20683;-66
2024/03/12 02:32:32;;;;;;;4.77;4.47;;;3.90;99.90;;;4.64;100.00;97571.31;10370796;28;20233;-66
2024/03/12 02:37:35;;;;;;;5.10;4.70;;;3.80;99.90;;;4.59;100.00;97568.44;10372637;28;20546;-66
2024/03/12 02:42:41;;;;;;;5.13;4.80;;;3.80;99.90;;;4.51;100.00;97580.50;10373923;28;20308;-65
2024/03/12 02:47:44;;;;;;;4.63;4.30;;;3.70;99.90;;;4.50;100.00;97583.81;10372550;28;20236;-66
2024/03/12 02:52:48;;;;;;;5.47;5.07;;;3.70;99.90;;;4.38;100.00;97577.84;10374674;28;20232;-66
2024/03/12 02:57:53;;;;;;;5.57;5.17;;;3.50;99.90;;;4.33;100.00;97589.25;10373075;28;21821;-67
2024/03/12 03:02:56;;;;;;;4.97;4.60;;;3.50;99.90;;;4.25;100.00;97585.25;10373778;28;20226;-64
2024/03/12 03:08:00;;;;;;;5.13;4.77;;;3.40;99.90;;;4.17;100.00;97591.34;10373934;28;20225;-66
2024/03/12 03:13:05;;;;;;;5.70;5.20;;;3.30;99.90;;;4.20;100.00;97599.16;10373805;28;20403;-66
2024/03/12 03:18:09;;;;;;;4.70;4.40;;;3.30;99.90;;;4.05;100.00;97601.41;10373472;28;20302;-66
2024/03/12 03:23:12;;;;;;;5.00;4.70;;;3.20;99.90;;;3.94;100.00;97608.16;10381995;28;20255;-65
2024/03/12 03:28:17;;;;;;;5.93;5.37;;;3.20;99.90;;;3.84;100.00;97605.69;10381320;28;20230;-67
2024/03/12 03:33:22;;;;;;;5.67;5.27;;;3.00;99.90;;;3.81;100.00;97602.91;10382094;28;20668;-65
2024/03/12 03:38:27;;;;;;;5.90;5.40;;;3.10;99.90;;;3.76;100.00;97607.59;10381293;28;20227;-66
2024/03/12 03:43:33;;;;;;;5.63;5.23;;;3.00;99.90;;;3.79;100.00;97612.00;10377983;28;20816;-67
2024/03/12 03:48:36;;;;;;;6.50;6.00;;;3.00;99.90;;;3.74;100.00;97623.41;10382284;28;20247;-67
2024/03/12 03:53:40;;;;;;;6.83;6.23;;;3.00;99.90;;;3.71;100.00;97628.22;10381763;28;20448;-67
2024/03/12 03:58:44;;;;;;;6.07;5.67;;;2.90;99.90;;;3.72;100.00;97635.03;10383217;28;20286;-66
2024/03/12 04:03:47;;;;;;;6.20;5.77;;;2.90;99.90;;;3.76;100.00;97648.03;10379205;28;20378;-66
2024/03/12 04:08:53;;;;;;;5.90;5.40;;;3.00;99.90;;;3.96;100.00;97649.59;10378819;28;20240;-66
2024/03/12 04:13:58;;;;;;;5.20;4.80;;;3.10;99.90;;;3.99;100.00;97646.44;10378302;28;20234;-67
2024/03/12 04:19:01;;;;;;;5.03;4.73;;;3.20;99.90;;;3.81;100.00;97651.81;10381770;28;20256;-67
2024/03/12 04:24:05;;;;;;;5.90;5.40;;;3.00;99.90;;;3.86;100.00;97649.63;10378135;28;20692;-66
2024/03/12 04:29:10;;;;;;;6.13;5.63;;;3.10;99.90;;;3.94;100.00;97655.31;10378138;28;20233;-66
2024/03/12 04:34:13;;;;;;;5.67;5.27;;;3.20;99.90;;;4.20;100.00;97663.28;10376834;28;20724;-67
2024/03/12 04:39:30;;;;;;;6.00;5.50;;;3.30;99.90;;;4.11;100.00;97665.09;10380411;28;20913;-67
2024/03/12 04:44:35;;;;;;;5.77;5.37;;;3.40;99.90;;;4.16;100.00;97676.47;10376551;28;20233;-67
2024/03/12 04:49:39;;;;;;;6.07;5.60;;;3.50;99.90;;;4.31;100.00;97678.44;10377763;28;20233;-67
2024/03/12 04:54:42;;;;;;;6.00;5.60;;;3.60;99.90;;;4.43;100.00;97674.31;10376997;28;20226;-67
2024/03/12 04:59:47;;;;;;;5.73;5.33;;;3.60;99.90;;;4.46;100.00;97688.09;10379456;28;20447;-67
2024/03/12 05:04:50;;;;;;;4.83;4.53;;;3.70;99.90;;;4.46;100.00;97690.63;10401361;28;20240;-67
2024/03/12 05:09:53;;;;;;;6.63;6.03;;;3.60;99.90;;;4.25;100.00;97710.06;10420922;28;20228;-67
2024/03/12 05:14:58;;;;;;;6.87;6.37;;;3.50;99.90;;;4.15;100.00;97714.25;10426898;28;20228;-66
2024/03/12 05:20:01;;;;;;;6.53;5.93;;;3.40;99.90;;;4.12;100.00;97711.50;10423971;28;20236;-66
2024/03/12 05:25:09;;;;;;;6.17;5.77;;;3.40;99.90;;;4.24;100.00;97720.94;10429320;28;20228;-67
2024/03/12 05:30:15;;;;;;;5.60;5.10;;;3.60;99.90;;;4.38;100.00;97724.56;10429487;28;20290;-65
2024/03/12 05:35:20;;;;;;;6.33;5.83;;;3.70;99.90;;;4.46;100.00;97726.06;10425582;28;20233;-66
2024/03/12 05:40:29;;;;;;;7.43;6.83;;;3.80;99.90;;;4.62;100.00;97735.72;10424309;28;20841;-66
2024/03/12 05:50:56;;;;;;;6.10;5.60;;;4.10;99.90;;;4.97;100.00;97753.59;10406247;28;20228;-67
2024/03/12 05:55:59;;;;;;;7.10;6.50;;;4.20;99.90;;;5.14;100.00;97756.56;10402796;28;20228;-66
2024/03/12 06:01:05;;;;;;;6.87;6.37;;;4.30;99.90;;;5.16;100.00;97755.91;10426458;28;20247;-65
2024/03/12 06:06:09;;;;;;;6.97;6.47;;;4.40;99.90;;;5.08;100.00;97762.03;10420989;28;20225;-65
2024/03/12 06:11:12;;;;;;;6.73;6.13;;;4.30;99.90;;;5.08;100.00;97771.28;10415088;28;20308;-66
2024/03/12 06:16:18;;;;;;;6.67;6.03;;;4.30;99.90;;;5.00;100.00;97769.81;10416020;28;20229;-67
2024/03/12 06:21:21;;;;;;;6.33;5.83;;;4.30;99.90;;;4.85;100.00;97778.00;10416814;28;20236;-66
2024/03/12 06:26:25;;;;;;;6.67;6.07;;;4.30;99.90;;;5.04;100.00;97794.63;10418141;28;20225;-67
2024/03/12 06:31:34;;;;;;;7.10;6.50;;;4.40;99.90;;;5.32;100.00;97779.88;10419297;28;20233;-66
2024/03/12 06:36:39;;;;;;;9.03;8.17;;;4.60;99.90;;;5.47;100.00;97788.66;10434081;22;20759;-67
2024/03/12 06:41:42;;;;;;;9.00;8.20;;;4.70;99.90;;;5.57;100.00;97795.28;10399761;28;20233;-67
2024/03/12 06:46:47;;;;;;;7.47;6.87;;;4.80;99.90;;;5.59;100.00;97796.28;10405390;28;20229;-67
2024/03/12 06:51:50;;;;;;;13.30;11.90;;;4.80;99.90;;;5.62;100.00;97804.13;10353589;28;20230;-69
2024/03/12 06:56:55;;;;;;;8.43;7.73;;;4.90;99.90;;;5.91;100.00;97805.41;10341899;28;21181;-67
2024/03/12 07:02:00;;;;;;;7.20;6.60;;;5.10;99.90;;;5.67;100.00;97795.22;10374557;28;20372;-69
2024/03/12 07:07:05;;;;;;;6.70;6.20;;;5.00;99.90;;;5.85;100.00;97809.25;10364736;28;20228;-67
2024/03/12 07:12:09;;;;;;;8.50;7.80;;;5.10;99.90;;;6.02;100.00;97799.50;10381493;28;20288;-66
2024/03/12 07:17:14;;;;;;;8.57;7.97;;;5.20;99.90;;;6.14;100.00;97804.59;10346939;28;20326;-67
2024/03/12 07:22:18;;;;;;;9.10;8.30;;;5.40;99.90;;;6.28;100.00;97807.34;10341446;28;20227;-65
2024/03/12 07:27:23;;;;;;;9.13;8.33;;;5.50;99.90;;;6.36;100.00;97813.00;10380716;28;20299;-66
2024/03/12 07:32:28;;;;;;;8.17;7.57;;;5.60;99.90;;;6.46;100.00;97806.91;10348710;28;20223;-65
2024/03/12 07:37:36;;;;;;;8.50;7.90;;;5.70;99.90;;;6.60;100.00;97807.91;10339116;28;20234;-66
2024/03/12 07:42:41;;;;;;;8.80;8.20;;;5.80;99.90;;;6.64;100.00;97815.84;10339716;28;20377;-66
2024/03/12 07:47:46;;;;;;;7.63;7.03;;;5.90;99.90;;;6.75;100.00;97820.03;10353740;28;20231;-66
2024/03/12 07:52:50;;;;;;;6.93;6.43;;;6.00;99.90;;;6.90;100.00;97825.31;10349348;28;20724;-66
2024/03/12 07:57:55;;;;;;;8.50;7.80;;;6.20;99.90;;;7.04;100.00;97822.84;10360335;28;20597;-66
2024/03/12 08:02:59;;;;;;;8.60;7.80;;;6.30;99.90;;;7.17;100.00;97833.97;10353076;28;20228;-68
2024/03/12 08:08:06;;;;;;;8.70;7.53;;;6.40;99.90;;;7.35;100.00;97836.03;10359718;28;20269;-68
2024/03/12 08:13:10;;;;;;;7.93;7.13;;;6.50;99.90;;;7.45;100.00;97841.84;10365049;28;20225;-66
2024/03/12 08:18:14;;;;;;;8.80;8.00;;;6.60;99.90;;;7.53;100.00;97847.47;10384646;28;20233;-65
2024/03/12 08:23:24;;;;;;;8.50;7.70;;;6.80;99.90;;;7.67;100.00;97849.31;10372845;28;20230;-66
2024/03/12 08:28:27;;;;;;;12.23;10.87;;;7.00;99.90;;;7.79;100.00;97850.91;10356806;28;20230;-67
2024/03/12 08:33:31;;;;;;;9.13;8.33;;;7.00;99.90;;;7.82;100.00;97856.19;10354864;28;20689;-66
2024/03/12 08:38:36;;;;;;;6.80;6.30;;;7.00;99.90;;;7.84;100.00;97860.63;10368819;28;20608;-67
2024/03/12 08:43:39;;;;;;;7.57;6.87;;;7.00;99.90;;;7.89;100.00;97859.25;10382496;28;20316;-66
2024/03/12 08:48:43;;;;;;;7.87;7.17;;;7.10;99.90;;;7.94;100.00;97866.31;10369686;28;20237;-66
2024/03/12 08:53:47;;;;;;;8.90;8.00;;;7.10;99.90;;;7.88;100.00;97862.56;10383670;28;20229;-66
2024/03/12 08:58:50;;;;;;;7.93;7.33;;;7.10;99.90;;;7.88;100.00;97871.88;10359318;28;20726;-66
2024/03/12 09:03:54;;;;;;;8.17;7.47;;;7.10;99.90;;;7.96;100.00;97880.03;10362244;28;20308;-66
2024/03/12 09:08:58;;;;;;;7.93;7.27;;;7.20;99.90;;;7.98;100.00;97884.44;10386173;28;20233;-66
2024/03/12 09:14:02;;;;;;;7.10;6.50;;;7.30;99.90;;;8.20;100.00;97896.06;10380871;28;20237;-66
2024/03/12 09:19:06;;;;;;;5.43;4.93;;;7.40;99.90;;;8.18;100.00;97888.31;10355638;28;20228;-68
2024/03/12 09:24:10;;;;;;;5.30;4.90;;;7.40;99.90;;;8.22;100.00;97890.28;10366076;28;20222;-68
2024/03/12 09:29:13;;;;;;;6.13;5.63;;;7.40;99.90;;;8.22;100.00;97895.38;10360564;28;20238;-67
2024/03/12 09:34:18;;;;;;;6.00;5.50;;;7.40;99.90;;;8.27;100.00;97893.13;10362798;28;20361;-66
2024/03/12 09:39:24;;;;;;;8.00;5.90;;;7.50;99.90;;;8.37;100.00;97895.50;10359373;28;20230;-66
2024/03/12 09:44:27;;;;;;;5.70;5.03;;;7.60;99.90;;;8.60;99.82;97894.50;10394365;28;20276;-66
2024/03/12 09:49:32;;;;;;;4.67;4.27;;;7.70;99.90;;;8.70;98.54;97898.50;10400761;28;20237;-66
2024/03/12 09:54:36;;;;;;;5.60;5.10;;;7.80;99.90;;;8.69;98.35;97904.41;10401556;28;20229;-66
2024/03/12 09:59:40;;;;;;;35.63;28.90;;;7.80;99.90;;;9.02;93.83;97901.47;10400351;28;20641;-66
2024/03/12 10:04:45;;;;;;;58.63;38.47;;;8.00;99.90;;;8.89;94.84;97901.47;10360652;28;20218;-68
2024/03/12 10:09:49;;;;;;;4.73;4.33;;;7.90;99.90;;;8.91;93.85;97904.13;10370556;28;20230;-66
2024/03/12 10:14:54;;;;;;;5.97;5.33;;;8.00;99.90;;;8.91;94.60;97919.44;10360439;28;20357;-66
2024/03/12 10:20:07;;;;;;;16.33;13.60;;;8.00;99.90;;;9.01;93.64;97919.22;10390749;28;20663;-66
2024/03/12 10:25:11;;;;;;;5.20;4.70;;;8.10;99.90;;;9.16;92.42;97917.66;10364967;28;20232;-67
2024/03/12 10:30:25;;;;;;;6.83;6.33;;;8.20;99.90;;;9.12;93.15;97925.00;10375496;28;20233;-67
2024/03/12 10:35:30;;;;;;;4.60;4.30;;;8.30;99.90;;;9.38;92.58;97930.06;10357102;28;20765;-67
2024/03/12 10:40:34;;;;;;;4.18;3.88;;;8.40;99.90;;;9.36;90.65;97928.22;10342774;28;20304;-68
2024/03/12 10:45:39;;;;;;;3.60;3.40;;;8.40;99.90;;;9.35;90.66;97932.44;10356760;28;20321;-68
2024/03/12 10:50:45;;;;;;;4.57;4.20;;;8.30;99.90;;;9.51;88.83;97930.84;10360275;28;20250;-68
2024/03/12 10:55:49;;;;;;;3.70;3.50;;;8.70;99.90;;;9.31;89.13;97930.47;10365265;28;20288;-67
2024/03/12 11:00:53;;;;;;;5.13;4.40;;;8.50;99.90;;;9.10;91.24;97932.56;10341099;28;20301;-68
2024/03/12 11:05:59;;;;;;;4.72;4.32;;;8.30;99.90;;;9.18;92.05;97938.13;10338996;28;20226;-68
2024/03/12 11:11:05;;;;;;;6.32;5.82;;;8.30;99.90;;;9.46;89.54;97939.09;10363304;28;20243;-69
2024/03/12 11:16:12;;;;;;;4.43;4.13;;;8.60;99.90;;;9.41;91.25;97948.16;10359792;28;20288;-69
2024/03/12 11:21:24;;;;;;;5.47;4.97;;;8.50;99.90;;;9.15;92.50;97928.63;10363121;28;20222;-67
2024/03/12 11:26:29;;;;;;;5.63;5.13;;;8.40;99.90;;;9.15;94.18;97941.38;10370685;28;20256;-67
2024/03/12 11:31:37;;;;;;;5.10;4.70;;;8.40;99.90;;;9.09;93.96;97938.44;10367581;28;20601;-65
2024/03/12 11:36:46;;;;;;;4.40;4.10;;;8.40;99.90;;;9.31;91.90;97939.81;10356143;28;20590;-66
2024/03/12 11:42:11;;;;;;;4.53;4.13;;;8.40;99.90;;;9.15;94.26;97943.03;10363537;28;20229;-69
2024/03/12 11:47:34;;;;;;;4.78;4.32;;;8.40;99.90;;;9.20;94.97;97937.44;10381188;28;20235;-68
2024/03/12 11:52:39;;;;;;;4.43;4.03;;;8.40;99.90;;;9.25;93.94;97930.09;10369543;28;20226;-67
2024/03/12 11:57:43;;;;;;;4.38;3.97;;;8.40;99.90;;;9.32;92.48;97926.25;10368977;28;20337;-69
2024/03/12 12:02:48;;;;;;;3.95;3.55;;;8.40;99.90;;;9.47;91.36;97937.41;10371198;28;20260;-66
2024/03/12 12:07:53;;;;;;;4.13;3.72;;;8.50;99.90;;;9.55;90.19;97927.69;10366025;28;20237;-66
2024/03/12 12:12:56;;;;;;;3.90;3.50;;;8.60;99.90;;;9.83;87.31;97936.25;10365768;28;20277;-68
2024/03/12 12:18:08;;;;;;;4.60;4.20;;;8.80;99.90;;;9.55;88.72;97936.22;10364102;28;20249;-68
2024/03/12 12:23:13;;;;;;;4.32;3.90;;;8.70;99.90;;;9.57;88.96;97929.56;10377508;28;20226;-66
2024/03/12 12:28:18;;;;;;;5.00;3.80;;;8.70;99.90;;;9.90;87.22;97934.94;10365240;28;20325;-69
2024/03/12 12:33:23;;;;;;;6.10;4.90;;;8.90;99.90;;;9.64;89.65;97936.81;10369888;28;20222;-69
2024/03/12 12:43:33;;;;;;;5.82;4.45;;;8.80;99.90;;;9.27;97.01;97942.94;10274189;28;20669;-68
2024/03/12 12:48:37;;;;;;;6.78;6.00;;;8.50;99.90;;;8.90;100.00;97946.59;10275998;28;20226;-67
2024/03/12 12:53:45;;;;;;;5.50;5.00;;;8.30;99.90;;;8.64;100.00;97952.53;10276099;28;20718;-68
2024/03/12 12:58:51;;;;;;;4.37;3.97;;;8.10;99.90;;;8.48;100.00;97955.72;10277436;28;21021;-67
2024/03/12 13:03:54;;;;;;;5.17;4.67;;;7.90;99.90;;;8.28;100.00;97961.13;10276689;28;20831;-67
2024/03/12 13:08:57;;;;;;;5.80;5.20;;;7.80;99.90;;;8.33;100.00;97960.63;10276870;28;20306;-67
2024/03/12 13:14:02;;;;;;;5.23;4.73;;;7.80;99.90;;;8.43;100.00;97962.16;10275223;28;20323;-67
2024/03/12 13:19:05;;;;;;;5.43;4.93;;;7.90;99.90;;;8.60;100.00;97964.97;10277385;28;20315;-66
2024/03/12 13:24:09;;;;;;;5.57;4.95;;;8.00;99.90;;;8.78;100.00;97961.97;10275018;28;20232;-67
2024/03/12 13:29:15;;;;;;;8.20;6.10;;;8.10;99.90;;;8.94;100.00;97963.84;10276373;28;20232;-67
2024/03/12 13:34:18;;;;;;;8.55;6.90;;;8.20;99.90;;;9.12;100.00;97964.13;10277317;28;20219;-67
2024/03/12 13:39:22;;;;;;;22.60;15.57;;;8.40;99.90;;;9.19;100.00;97955.22;10274604;28;20271;-67
2024/03/12 13:44:26;;;;;;;17.35;12.45;;;8.50;99.90;;;9.30;100.00;97959.34;10262199;28;20236;-65
2024/03/12 13:49:29;;;;;;;25.73;19.70;;;8.60;99.90;;;9.33;100.00;97963.72;10255664;28;20831;-65
2024/03/12 13:54:33;;;;;;;18.85;13.98;;;8.70;99.90;;;9.38;100.00;97958.13;10257350;28;20335;-65
2024/03/12 13:59:38;;;;;;;19.35;14.93;;;8.70;99.90;;;9.33;100.00;97964.63;10257579;28;20231;-65
2024/03/12 14:04:43;;;;;;;19.77;15.45;;;8.70;99.90;;;9.31;99.89;97961.09;10256607;28;20227;-65
2024/03/12 14:09:46;;;;;;;21.02;16.15;;;8.70;99.90;;;9.36;98.69;97963.94;10255182;28;20255;-66
2024/03/12 14:14:51;;;;;;;20.40;16.70;;;8.70;99.90;;;9.45;96.43;97965.41;10261524;28;20240;-65
2024/03/12 14:19:55;;;;;;;19.92;14.90;;;8.70;99.90;;;9.47;95.80;97968.94;10267702;28;20627;-67
2024/03/12 14:24:59;;;;;;;18.23;14.45;;;8.80;99.90;;;9.53;96.38;97967.53;10271046;28;20227;-68
2024/03/12 14:30:07;;;;;;;20.40;17.38;;;8.80;99.90;;;9.56;96.21;97960.97;10269575;28;20314;-67
2024/03/12 14:35:10;;;;;;;19.33;14.95;;;8.90;99.90;;;9.75;95.04;97964.66;10264487;28;20559;-67
2024/03/12 14:40:14;;;;;;;20.23;15.50;;;9.00;99.90;;;9.82;92.54;97971.91;10268404;28;20231;-67
2024/03/12 14:45:19;;;;;;;17.63;15.18;;;9.10;99.90;;;10.02;90.51;97968.03;10269791;28;20227;-67
2024/03/12 14:50:22;;;;;;;17.70;14.43;;;9.20;99.90;;;9.92;92.34;97957.22;10258640;28;20707;-68
2024/03/12 14:55:25;;;;;;;16.15;13.13;;;9.20;99.90;;;9.98;90.55;97956.72;10261030;28;20246;-67
2024/03/12 15:00:30;;;;;;;16.60;12.93;;;9.20;99.90;;;9.88;89.03;97952.75;10260802;28;20627;-66
2024/03/12 15:05:35;;;;;;;17.80;13.52;;;9.20;99.90;;;9.72;89.93;97965.34;10257072;28;20239;-65
2024/03/12 15:10:38;;;;;;;18.65;14.57;;;9.00;99.90;;;9.55;90.39;97961.75;10255358;28;20231;-66
2024/03/12 15:15:44;;;;;;;18.27;14.52;;;8.90;99.90;;;9.45;93.06;97969.63;10268979;28;20227;-68
2024/03/12 15:20:48;;;;;;;19.63;15.25;;;8.90;99.90;;;9.37;93.79;97971.69;10270824;28;20243;-66
2024/03/12 15:25:53;;;;;;;25.40;19.50;;;8.80;99.90;;;9.34;95.80;97980.81;10266837;28;20227;-69
2024/03/12 15:30:57;;;;;;;26.60;18.33;;;8.70;99.90;;;9.11;98.06;97992.97;10285356;28;20231;-68
2024/03/12 15:36:01;;;;;;;21.42;14.88;;;8.60;99.90;;;8.75;99.30;98004.19;10290641;28;20282;-68
2024/03/12 15:41:06;;;;;;;19.17;14.90;;;8.20;99.90;;;8.54;100.00;98007.06;10284439;28;20231;-67
2024/03/12 15:46:11;;;;;;;23.73;17.03;;;8.00;99.90;;;8.37;100.00;98002.47;10282872;28;20779;-67
2024/03/12 15:51:14;;;;;;;29.15;19.13;;;7.80;99.90;;;8.43;100.00;98002.03;10286865;28;20255;-68
2024/03/12 15:56:17;;;;;;;83.20;51.43;;;7.70;99.90;;;8.20;100.00;98000.44;10289273;28;20753;-68
2024/03/12 16:01:22;;;;;;;50.90;31.67;;;7.60;99.90;;;8.16;100.00;97995.94;10282096;28;20346;-66
2024/03/12 16:06:26;;;;;;;51.00;30.90;;;7.60;99.90;;;8.22;100.00;98001.44;10266039;28;20227;-68
2024/03/12 16:11:29;;;;;;;36.60;23.58;;;7.60;99.90;;;8.24;100.00;98004.94;10268496;28;20638;-68
2024/03/12 16:16:34;;;;;;;34.23;22.30;;;7.60;99.90;;;8.26;100.00;98001.72;10275850;28;20237;-68
2024/03/12 16:21:37;;;;;;;30.33;20.13;;;7.70;99.90;;;8.25;100.00;98006.75;10281820;28;21137;-68
2024/03/12 16:26:40;;;;;;;32.60;21.90;;;7.60;99.90;;;8.17;100.00;98005.31;10269784;28;20234;-67
2024/03/12 16:31:45;;;;;;;32.03;21.67;;;7.50;99.90;;;8.11;100.00;98006.66;10269325;28;20711;-68
2024/03/12 16:36:48;;;;;;;32.50;19.93;;;7.40;99.90;;;8.03;100.00;97995.06;10272110;28;20227;-68
2024/03/12 16:41:56;;;;;;;29.60;19.60;;;7.40;99.90;;;7.99;100.00;97998.19;10269055;28;20763;-67
2024/03/12 16:47:04;;;;;;;29.37;19.63;;;7.40;99.90;;;7.91;100.00;97989.13;10266655;28;20260;-68
2024/03/12 16:52:10;;;;;;;26.73;18.60;;;7.30;99.90;;;7.83;100.00;97985.19;10264970;28;20235;-70
2024/03/12 16:57:14;;;;;;;32.00;20.97;;;7.20;99.90;;;7.86;100.00;97998.13;10284938;28;20258;-68
2024/03/12 17:02:20;;;;;;;30.67;19.77;;;7.10;99.90;;;7.78;100.00;97997.56;10291304;28;20246;-69
2024/03/12 17:07:25;;;;;;;31.30;19.90;;;7.10;99.90;;;7.82;100.00;97989.38;10285718;28;20318;-69
2024/03/12 17:12:29;;;;;;;30.60;19.43;;;7.10;99.90;;;7.78;100.00;97992.47;10280902;28;20228;-68
2024/03/12 17:17:36;;;;;;;29.10;18.73;;;7.10;99.90;;;7.75;100.00;97996.47;10284232;28;20306;-69
2024/03/12 17:22:40;;;;;;;32.80;20.90;;;7.10;99.90;;;7.65;100.00;98011.09;10283903;28;20290;-69
2024/03/12 17:27:47;;;;;;;28.30;20.37;;;7.00;99.90;;;7.59;100.00;98008.13;10259238;28;20306;-69
2024/03/12 17:32:54;;;;;;;30.13;21.07;;;6.90;99.90;;;7.60;100.00;98019.19;10264085;28;20224;-68
2024/03/12 17:38:02;;;;;;;32.53;23.43;;;6.90;99.90;;;7.61;100.00;98016.75;10270944;28;20267;-68
2024/03/12 17:43:06;;;;;;;35.93;23.67;;;6.90;99.90;;;7.56;100.00;98033.34;10253570;28;20941;-68
2024/03/12 17:48:13;;;;;;;37.37;25.67;;;6.90;99.90;;;7.53;100.00;98030.59;10257902;28;20247;-68
2024/03/12 17:53:20;;;;;;;35.60;23.80;;;6.80;99.90;;;7.51;100.00;98037.22;10250247;28;21045;-69
2024/03/12 17:58:26;;;;;;;38.63;26.53;;;6.80;99.90;;;7.50;100.00;98045.63;10250671;28;20236;-68
2024/03/12 18:03:32;;;;;;;38.80;25.67;;;6.70;99.90;;;7.52;100.00;98049.16;10248240;28;20235;-68
2024/03/12 18:08:39;;;;;;;40.37;23.93;;;6.80;99.90;;;7.47;100.00;98055.59;10250158;28;20964;-68
2024/03/12 18:13:43;;;;;;;36.40;23.07;;;6.80;99.90;;;7.55;100.00;98056.13;10258514;28;20231;-68
2024/03/12 18:18:47;;;;;;;35.13;23.07;;;6.80;99.90;;;7.46;100.00;98074.13;10249001;28;20323;-66
2024/03/12 18:23:51;;;;;;;35.07;22.90;;;6.80;99.90;;;7.54;100.00;98069.63;10241577;28;20749;-67
2024/03/12 18:28:56;;;;;;;37.73;22.43;;;6.70;99.90;;;7.40;100.00;98073.69;10245167;28;20227;-68
2024/03/12 18:34:01;;;;;;;32.87;22.10;;;6.70;99.90;;;7.50;100.00;98055.81;10245741;28;20358;-67
2024/03/12 18:39:04;;;;;;;38.47;24.07;;;6.70;99.90;;;7.32;100.00;98075.69;10244089;28;20231;-68
2024/03/12 18:44:07;;;;;;;41.70;27.03;;;6.70;99.90;;;7.26;100.00;98069.28;10237983;28;20567;-68
2024/03/12 18:49:13;;;;;;;42.60;27.03;;;6.60;99.90;;;7.20;100.00;98064.63;10367094;23;20294;-67
2024/03/12 18:54:17;;;;;;;41.17;27.13;;;6.60;99.90;;;7.19;100.00;98057.78;10401445;28;20228;-67
2024/03/12 18:59:21;;;;;;;40.47;26.47;;;6.60;99.90;;;7.24;100.00;98059.00;10402294;28;20791;-66
2024/03/12 19:04:34;;;;;;;42.07;26.43;;;6.70;99.90;;;7.26;100.00;98069.28;10407968;28;20225;-66
2024/03/12 19:09:38;;;;;;;34.20;22.27;;;6.70;99.90;;;7.32;100.00;98060.41;10406696;28;20269;-67
2024/03/12 19:14:43;;;;;;;42.30;33.80;;;6.70;99.90;;;7.27;100.00;98066.84;10415362;28;20228;-65
2024/03/12 19:19:48;;;;;;;44.17;28.87;;;6.70;99.90;;;7.24;100.00;98066.63;10408124;28;20298;-68
2024/03/12 19:24:52;;;;;;;44.90;30.73;;;6.60;99.90;;;7.10;100.00;98057.09;10397346;28;20233;-65
2024/03/12 19:29:56;;;;;;;40.67;28.03;;;6.50;99.90;;;7.03;100.00;98055.75;10399913;28;20231;-66
2024/03/12 19:35:03;;;;;;;41.77;26.97;;;6.50;99.90;;;7.05;100.00;98059.31;10399624;28;20224;-67
2024/03/12 19:40:11;;;;;;;39.13;25.60;;;6.50;99.90;;;7.07;100.00;98061.94;10398926;28;20680;-66
2024/03/12 19:45:17;;;;;;;40.23;25.87;;;6.50;99.90;;;7.15;100.00;98063.38;10397378;28;20229;-67
2024/03/12 19:50:25;;;;;;;39.33;24.90;;;6.60;99.90;;;7.19;100.00;98058.66;10399271;28;20233;-66
2024/03/12 19:55:29;;;;;;;40.67;28.03;;;6.60;99.90;;;7.25;100.00;98067.50;10401320;28;20232;-66
2024/03/12 20:00:34;;;;;;;36.40;24.97;;;6.60;99.90;;;7.26;100.00;98069.28;10401951;28;20235;-67
2024/03/12 20:05:40;;;;;;;39.00;25.63;;;6.70;99.90;;;7.36;100.00;98067.50;10402137;28;20291;-67
2024/03/12 20:10:45;;;;;;;38.60;25.63;;;6.70;99.90;;;7.15;100.00;98066.84;10413172;28;20225;-66
2024/03/12 20:15:49;;;;;;;38.87;23.70;;;6.60;99.90;;;7.07;100.00;98065.38;10406097;28;20891;-66
2024/03/12 20:20:54;;;;;;;34.40;21.73;;;6.50;99.90;;;6.99;100.00;98069.03;10406129;28;20230;-67
2024/03/12 20:25:57;;;;;;;35.33;23.43;;;6.40;99.90;;;7.08;100.00;98073.91;10408913;28;20226;-67
2024/03/12 20:31:01;;;;;;;37.47;22.67;;;6.50;99.90;;;7.01;100.00;98072.56;10407928;28;20221;-67
2024/03/12 20:36:07;;;;;;;39.53;24.43;;;6.40;99.90;;;7.01;100.00;98077.66;10405958;28;20237;-68
2024/03/12 20:41:10;;;;;;;42.17;24.73;;;6.50;99.90;;;6.99;100.00;98084.25;10409404;28;20232;-68
2024/03/12 20:46:13;;;;;;;39.73;24.60;;;6.40;99.90;;;6.97;100.00;98081.59;10404957;28;20359;-68
2024/03/12 20:51:18;;;;;;;42.90;25.00;;;6.40;99.90;;;6.90;100.00;98078.50;10415650;28;20479;-66
2024/03/12 20:56:21;;;;;;;41.67;24.67;;;6.40;99.90;;;6.97;100.00;98070.56;10409016;28;20237;-67
2024/03/12 21:01:24;;;;;;;38.43;24.47;;;6.40;99.90;;;7.01;100.00;98070.03;10406938;28;20317;-68
2024/03/12 21:06:30;;;;;;;40.93;25.07;;;6.50;99.90;;;7.00;100.00;98073.31;10411958;28;20233;-67
2024/03/12 21:11:34;;;;;;;39.13;24.57;;;6.40;99.90;;;6.92;100.00;98071.84;10427970;28;20228;-67
2024/03/12 21:16:37;;;;;;;42.07;25.80;;;6.40;99.90;;;6.96;100.00;98058.63;10428451;28;20262;-67
2024/03/12 21:21:43;;;;;;;40.67;24.80;;;6.40;99.90;;;6.93;100.00;98058.41;10428263;28;20230;-67